Wausa, Nebraska
Current Conditions -  °F | °C
As of 1:35 PM on Saturday 25 Oct 2014 (Local Time) from KYKN Reporting Station
Clear Clear  
Wind Chill: 66°   Ceiling: Unl
Heat Index: 66°   Visibility: 10mi
Dew Point: 36°   Wind: 6mph
Humidity: 32%   Direction: 80°E
Pressure: 30.13"   Gusts: NA
Location:  42.5°N, 97.54°W
Report Text: KYKN 251835Z AUTO 08005KT 10SM CLR 19/02 A3013 RMK AO1
Loading
Personal Weather Stations






























Interactive Weather Map
Tropical Storm Tracking
New forecast layout! Learn more

10-Day Weather Forecast

Advertisements
Track Severe Weather on mobile